createdAt,value
2022-08-12T00:04:02.163Z,1.98
2022-08-12T00:09:26.257Z,1.80
2022-08-12T00:14:48.259Z,1.85
2022-08-12T00:20:09.358Z,1.58
2022-08-12T00:25:50.877Z,1.95
2022-08-12T00:31:12.326Z,2.17
2022-08-12T00:36:36.183Z,1.83
2022-08-12T00:41:57.816Z,2.38
2022-08-12T00:47:03.345Z,2.10
2022-08-12T00:52:07.477Z,2.30
2022-08-12T00:57:12.964Z,2.13
2022-08-12T01:02:25.468Z,2.13
2022-08-12T01:07:47.113Z,1.83
2022-08-12T01:12:50.724Z,2.08
2022-08-12T01:17:55.434Z,1.90
2022-08-12T01:23:38.063Z,1.80
2022-08-12T01:28:45.347Z,2.05
2022-08-12T01:33:59.752Z,2.42
2022-08-12T01:39:03.862Z,2.00
2022-08-12T01:44:10.351Z,2.30
2022-08-12T01:49:35.225Z,2.50
2022-08-12T01:54:42.897Z,2.58
2022-08-12T01:59:53.434Z,2.25
2022-08-12T02:05:23.423Z,2.53
2022-08-12T02:11:03.539Z,2.70
2022-08-12T02:16:15.081Z,2.80
2022-08-12T02:21:26.834Z,2.70
2022-08-12T02:26:34.077Z,2.30
2022-08-12T02:31:39.581Z,2.42
2022-08-12T02:36:45.511Z,3.10
2022-08-12T02:41:52.053Z,2.40
2022-08-12T02:47:02.339Z,2.80
2022-08-12T02:52:05.939Z,2.90
2022-08-12T02:57:10.058Z,2.78
2022-08-12T03:02:17.647Z,2.72
2022-08-12T03:07:55.931Z,3.25
2022-08-12T03:12:53.620Z,2.95
2022-08-12T03:18:24.228Z,3.35
2022-08-12T03:23:30.825Z,3.00
2022-08-12T03:28:51.914Z,2.75
2022-08-12T03:34:01.754Z,2.78
2022-08-12T03:39:35.888Z,2.70
2022-08-12T03:45:00.493Z,3.47
2022-08-12T03:50:23.389Z,2.88
2022-08-12T03:55:44.077Z,2.88
2022-08-12T04:00:47.589Z,3.67
2022-08-12T04:05:55.866Z,3.75
2022-08-12T04:11:17.495Z,3.40
2022-08-12T04:16:21.299Z,3.28
2022-08-12T04:21:26.057Z,3.30
2022-08-12T04:26:30.067Z,3.08
2022-08-12T04:31:33.701Z,3.53
2022-08-12T04:36:39.385Z,3.97
2022-08-12T04:41:54.406Z,3.67
2022-08-12T04:47:01.609Z,3.70
2022-08-12T04:52:06.679Z,3.03
2022-08-12T04:57:10.050Z,3.85
2022-08-12T05:02:16.499Z,3.33
2022-08-12T05:07:24.282Z,4.30
2022-08-12T05:12:29.441Z,3.75
2022-08-12T05:17:32.308Z,3.67
2022-08-12T05:22:40.036Z,4.53
2022-08-12T05:27:55.469Z,3.92
2022-08-12T05:33:05.223Z,3.50
2022-08-12T05:38:27.645Z,3.78
2022-08-12T05:43:30.785Z,4.35
2022-08-12T05:48:33.741Z,4.40
2022-08-12T05:53:38.383Z,4.18
2022-08-12T05:58:41.578Z,3.47
2022-08-12T06:03:44.789Z,4.85
2022-08-12T06:08:53.773Z,4.30
2022-08-12T06:13:58.490Z,3.78
2022-08-12T06:19:01.521Z,4.20
2022-08-12T06:24:08.157Z,4.15
2022-08-12T06:30:08.935Z,4.75
2022-08-12T06:35:25.856Z,4.53
2022-08-12T06:40:06.076Z,4.43
2022-08-12T06:45:12.317Z,4.45
2022-08-12T06:50:16.903Z,4.60
2022-08-12T06:55:25.491Z,4.50
2022-08-12T07:00:32.837Z,4.57
2022-08-12T07:05:36.124Z,4.72
2022-08-12T07:10:45.746Z,5.20
2022-08-12T07:15:48.793Z,6.20
2022-08-12T07:20:53.209Z,5.88
2022-08-12T07:25:59.175Z,5.28
2022-08-12T07:31:04.998Z,5.70
2022-08-12T07:36:11.937Z,5.53
2022-08-12T07:41:18.149Z,5.38
2022-08-12T07:46:25.891Z,5.65
2022-08-12T07:51:30.275Z,5.25
2022-08-12T07:56:34.911Z,5.28
2022-08-12T08:01:38.973Z,5.05
2022-08-12T08:06:43.306Z,4.65
2022-08-12T08:12:06.157Z,4.93
2022-08-12T08:17:11.503Z,4.38
2022-08-12T08:22:14.445Z,4.68
2022-08-12T08:27:18.949Z,4.38
2022-08-12T08:32:22.223Z,4.20
2022-08-12T08:37:26.939Z,4.30
2022-08-12T08:42:40.552Z,4.05
2022-08-12T08:47:47.142Z,3.50
2022-08-12T08:52:50.274Z,3.70
2022-08-12T08:57:55.941Z,3.70
2022-08-12T09:02:59.920Z,2.97
2022-08-12T09:14:12.476Z,2.63
2022-08-12T09:18:57.644Z,3.53
2022-08-12T09:24:07.653Z,3.50
2022-08-12T09:29:14.097Z,2.17
2022-08-12T09:34:29.490Z,2.53
2022-08-12T09:40:06.574Z,2.42
2022-08-12T09:45:23.065Z,2.80
2022-08-12T09:50:27.353Z,2.42
2022-08-12T09:56:21.611Z,2.50
2022-08-12T10:00:55.214Z,2.80
2022-08-12T10:06:27.238Z,2.53
2022-08-12T10:12:10.562Z,2.28
2022-08-12T10:17:08.963Z,2.40
2022-08-12T10:22:16.792Z,2.45
2022-08-12T10:28:03.883Z,2.20
2022-08-12T10:33:02.913Z,2.20
2022-08-12T10:38:39.345Z,2.13
2022-08-12T10:43:56.034Z,2.33
2022-08-12T10:49:06.957Z,2.13
2022-08-12T10:54:27.696Z,2.00
2022-08-12T11:00:01.466Z,2.30
2022-08-12T11:04:58.068Z,2.20
2022-08-12T11:10:02.881Z,1.80
2022-08-12T11:15:14.692Z,2.33
2022-08-12T11:20:28.980Z,2.10
2022-08-12T11:25:56.413Z,1.88
2022-08-12T11:30:57.129Z,1.58
2022-08-12T11:36:13.964Z,1.92
2022-08-12T11:41:17.873Z,2.25
2022-08-12T11:46:36.729Z,1.80
2022-08-12T11:51:41.512Z,1.73
2022-08-12T11:56:52.403Z,2.20
2022-08-12T12:02:05.372Z,1.58
2022-08-12T12:07:11.233Z,1.90
2022-08-12T12:12:15.038Z,1.52
2022-08-12T12:17:18.777Z,1.75
2022-08-12T12:22:26.976Z,1.52
2022-08-12T12:28:05.118Z,1.80
2022-08-12T12:33:13.088Z,2.00
2022-08-12T12:38:25.480Z,1.75
2022-08-12T12:43:43.319Z,2.08
2022-08-12T12:48:50.568Z,2.03
2022-08-12T12:54:07.118Z,3.03
2022-08-12T12:59:56.226Z,1.75
2022-08-12T13:04:37.426Z,1.58
2022-08-12T13:09:46.503Z,1.70
2022-08-12T13:14:50.207Z,1.70
2022-08-12T13:19:55.447Z,1.75
2022-08-12T13:25:01.704Z,1.80
2022-08-12T13:30:11.641Z,1.80
2022-08-12T13:35:19.909Z,2.05
2022-08-12T13:40:40.551Z,1.75
2022-08-12T13:45:43.509Z,1.60
2022-08-12T13:50:47.734Z,2.20
2022-08-12T13:55:59.872Z,1.60
2022-08-12T14:01:06.450Z,1.33
2022-08-12T14:06:15.395Z,1.50
2022-08-12T14:11:25.486Z,1.67
2022-08-12T14:16:37.781Z,1.58
2022-08-12T14:21:59.615Z,1.98
2022-08-12T14:27:09.392Z,1.75
2022-08-12T14:32:16.772Z,2.05
2022-08-12T14:37:54.971Z,1.58
2022-08-12T14:42:47.226Z,1.80
2022-08-12T14:47:58.505Z,1.50
2022-08-12T14:58:26.982Z,1.60
2022-08-12T15:03:52.540Z,1.52
2022-08-12T15:08:54.447Z,2.00
2022-08-12T15:13:58.781Z,2.13
2022-08-12T15:19:01.739Z,1.90
2022-08-12T15:24:15.688Z,1.83
2022-08-12T15:29:21.719Z,1.90
2022-08-12T15:34:24.751Z,1.70
2022-08-12T15:39:34.472Z,2.20
2022-08-12T15:44:42.900Z,2.00
2022-08-12T15:49:59.831Z,1.90
2022-08-12T15:55:05.956Z,2.30
2022-08-12T16:00:31.802Z,1.65
2022-08-12T16:06:11.633Z,1.52
2022-08-12T16:11:07.147Z,1.80
2022-08-12T16:16:22.716Z,1.90
2022-08-12T16:21:51.181Z,1.92
2022-08-12T16:26:54.242Z,1.90
2022-08-12T16:32:00.425Z,1.77
2022-08-12T16:37:04.544Z,1.50
2022-08-12T16:42:10.389Z,1.75
2022-08-12T16:47:15.737Z,1.85
2022-08-12T16:52:21.806Z,1.80
2022-08-12T16:57:42.949Z,1.77
2022-08-12T17:02:57.157Z,1.77
2022-08-12T17:08:01.688Z,1.50
2022-08-12T17:13:09.447Z,1.40
2022-08-12T17:18:45.388Z,1.88
2022-08-12T17:23:48.659Z,1.60
2022-08-12T17:28:57.713Z,1.45
2022-08-12T17:34:02.268Z,1.52
2022-08-12T17:39:09.261Z,1.50
2022-08-12T17:44:12.519Z,1.77
2022-08-12T17:50:02.256Z,1.70
2022-08-12T17:54:43.340Z,1.92
2022-08-12T17:59:49.538Z,1.80
2022-08-12T18:05:05.226Z,1.80
2022-08-12T18:10:35.572Z,1.65
2022-08-12T18:16:03.961Z,2.00
2022-08-12T18:21:03.595Z,2.55
2022-08-12T18:26:26.747Z,2.40
2022-08-12T18:31:44.787Z,2.55
2022-08-12T18:36:57.115Z,2.28
2022-08-12T18:42:02.191Z,2.38
2022-08-12T18:47:09.623Z,1.77
2022-08-12T18:52:18.623Z,1.52
2022-08-12T18:58:06.942Z,1.67
2022-08-12T19:02:49.240Z,1.70
2022-08-12T19:08:01.290Z,1.67
2022-08-12T19:13:24.343Z,2.05
2022-08-12T19:18:29.798Z,1.40
2022-08-12T19:23:35.971Z,1.65
2022-08-12T19:28:39.188Z,1.52
2022-08-12T19:33:43.328Z,1.80
2022-08-12T19:39:01.870Z,2.33
2022-08-12T19:44:16.794Z,2.08
2022-08-12T19:49:23.103Z,1.80
2022-08-12T19:54:30.223Z,1.70
2022-08-12T19:59:43.458Z,2.20
2022-08-12T20:06:03.873Z,2.00
2022-08-12T20:10:35.413Z,2.20
2022-08-12T20:15:44.572Z,2.38
2022-08-12T20:20:48.771Z,1.88
2022-08-12T20:26:01.890Z,1.90
2022-08-12T20:31:08.359Z,2.20
2022-08-12T20:36:40.807Z,2.03
2022-08-12T20:41:37.212Z,1.85
2022-08-12T20:46:40.177Z,1.80
2022-08-12T20:51:55.050Z,2.10
2022-08-12T20:57:00.967Z,2.00
2022-08-12T21:02:04.754Z,2.10
2022-08-12T21:07:10.474Z,2.20
2022-08-12T21:12:24.746Z,2.65
2022-08-12T21:17:33.891Z,1.85
2022-08-12T21:22:56.503Z,2.30
2022-08-12T21:28:07.003Z,2.05
2022-08-12T21:33:10.797Z,2.00
2022-08-12T21:38:17.953Z,2.30
2022-08-12T21:43:23.443Z,1.83
2022-08-12T21:48:26.666Z,2.20
2022-08-12T21:54:05.947Z,2.08
2022-08-12T21:58:54.128Z,1.98
2022-08-12T22:04:15.485Z,2.20
2022-08-12T22:09:18.535Z,2.17
2022-08-12T22:14:24.012Z,2.20
2022-08-12T22:19:27.378Z,2.20
2022-08-12T22:24:30.927Z,2.38
2022-08-12T22:29:53.000Z,2.80
2022-08-12T22:35:10.187Z,2.85
2022-08-12T22:40:25.303Z,3.35
2022-08-12T22:45:48.635Z,2.70
2022-08-12T22:50:59.762Z,2.70
2022-08-12T22:56:06.288Z,2.58
2022-08-12T23:01:13.771Z,2.60
2022-08-12T23:06:26.915Z,2.78
2022-08-12T23:11:36.266Z,2.40
2022-08-12T23:16:47.210Z,2.67
2022-08-12T23:22:06.660Z,2.65
2022-08-12T23:27:44.277Z,2.35
2022-08-12T23:32:59.856Z,2.30
2022-08-12T23:38:04.002Z,2.20
2022-08-12T23:43:06.896Z,2.47
2022-08-12T23:48:31.517Z,2.40
2022-08-12T23:53:34.801Z,2.47
2022-08-12T23:58:37.799Z,2.75
